Portada
METAR-TAF:

METAR-TAF

Aeroports :

Aeroport de Madrid-Barajas

Madrid, Espanya

latitud: 40-27N, longitud: 003-33W, altitud: 609 m

Observació

L'informe es va fer fa 38 minuts, a les 14:30 UTC
Vent 2 kt del Oest
Temperatura 34°C
Humitat 25%
Pressió 1022 hPa
Visibilitat 10 km o més
sense núvols per sota de 1500 mi sense presència de cumulonimbus.

METAR: LEMD 241430Z 27002KT CAVOK 34/11 Q1022 NOSIG

Hora: 17:08 (15:08 UTC)

Pronòstic

L'informe es va fer fa 4 hores i 8 minuts, a les 11:00 UTC
Pronòstic vàlid del 24 a les 12 UTC al 25 a les 18 UTC
Vent 12 kt del Nord-Est
Visibilitat 10 km o més
sense núvols per sota de 1500 mi sense presència de cumulonimbus.
Probabilitat 40% :
Temporalment
l' 24 a les 20 UTC al 25 a les 02 UTC
Vent 10 kt del Nord-Est amb ràfegues de 20 kt
Evolucionant progressivament
l' 25 a les 08 UTC al 25 a les 09 UTC
Vent 5 kt amb direcció variable

TAF: LEMD 241100Z 2412/2518 04012KT CAVOK TX33/2415Z TN15/2506Z PROB40 TEMPO 2420/2502 04010G20KT BECMG 2508/2509 VRB05KT

Observacions i pronòstics meteorològics de més de 4000 aeroports (METAR i TAF).

Les estacions disponibles són els punts grocs i vermells al mapa.

Posi el ratolí al punt desitjat per veure el nom de l'estació.

Feu clic per veure les observacions i els pronòstics meteorològics.

Per canviar el mapa: feu clic els botons verds amb una creu de color negre per apropar; al botó verd amb un guió per allunyar la imatge; o en les fletxes verdes per a mapes adjacents.


METAR-TAF: